createdAt,value
2022-11-26T00:00:33.387Z,1.09
2022-11-26T00:01:35.466Z,1.15
2022-11-26T00:02:37.345Z,1.11
2022-11-26T00:03:39.297Z,1.09
2022-11-26T00:04:41.175Z,1.11
2022-11-26T00:05:46.345Z,1.14
2022-11-26T00:06:48.500Z,1.02
2022-11-26T00:07:55.904Z,1.08
2022-11-26T00:08:59.510Z,1.05
2022-11-26T00:10:01.634Z,0.82
2022-11-26T00:11:06.697Z,0.83
2022-11-26T00:12:15.290Z,0.86
2022-11-26T00:13:20.716Z,0.88
2022-11-26T00:14:22.411Z,0.92
2022-11-26T00:15:26.630Z,0.84
2022-11-26T00:16:29.623Z,0.74
2022-11-26T00:17:31.486Z,0.61
2022-11-26T00:18:33.276Z,0.63
2022-11-26T00:19:35.086Z,0.54
2022-11-26T00:20:37.005Z,0.53
2022-11-26T00:21:41.644Z,0.53
2022-11-26T00:22:50.356Z,0.48
2022-11-26T00:23:54.150Z,0.51
2022-11-26T00:24:56.933Z,0.59
2022-11-26T00:26:03.721Z,0.64
2022-11-26T00:27:07.480Z,0.70
2022-11-26T00:28:32.599Z,0.77
2022-11-26T00:29:34.494Z,0.83
2022-11-26T00:30:37.347Z,0.77
2022-11-26T00:31:39.209Z,0.76
2022-11-26T00:32:40.891Z,0.72
2022-11-26T00:33:42.488Z,0.67
2022-11-26T00:34:45.007Z,0.66
2022-11-26T00:35:50.574Z,0.58
2022-11-26T00:36:52.718Z,0.60
2022-11-26T00:37:57.400Z,0.72
2022-11-26T00:39:09.013Z,0.72
2022-11-26T00:40:26.753Z,0.72
2022-11-26T00:41:32.665Z,0.75
2022-11-26T00:42:36.102Z,0.79
2022-11-26T00:43:37.813Z,0.74
2022-11-26T00:44:39.892Z,0.70
2022-11-26T00:45:42.892Z,0.71
2022-11-26T00:46:45.377Z,0.76
2022-11-26T00:47:47.247Z,0.80
2022-11-26T00:48:49.106Z,0.71
2022-11-26T00:49:50.932Z,0.74
2022-11-26T00:50:52.943Z,0.79
2022-11-26T00:51:54.584Z,0.81
2022-11-26T00:52:56.521Z,0.87
2022-11-26T00:54:01.384Z,0.91
2022-11-26T00:55:07.149Z,0.91
2022-11-26T00:56:18.510Z,0.92
2022-11-26T00:57:20.537Z,0.86
2022-11-26T00:58:25.841Z,0.91
2022-11-26T00:59:27.663Z,0.90
2022-11-26T01:00:32.897Z,0.87
2022-11-26T01:01:34.906Z,0.86
2022-11-26T01:02:36.801Z,0.85
2022-11-26T01:03:39.937Z,0.79
2022-11-26T01:04:42.382Z,0.79
2022-11-26T01:05:46.453Z,0.74
2022-11-26T01:06:48.792Z,0.79
2022-11-26T01:07:52.690Z,0.78
2022-11-26T01:08:54.839Z,0.79
2022-11-26T01:09:56.554Z,0.74
2022-11-26T01:11:00.302Z,0.70
2022-11-26T01:12:02.267Z,0.77
2022-11-26T01:13:06.150Z,0.68
2022-11-26T01:14:11.759Z,0.70
2022-11-26T01:15:14.939Z,0.65
2022-11-26T01:16:24.393Z,0.60
2022-11-26T01:17:26.393Z,0.58
2022-11-26T01:18:31.742Z,0.64
2022-11-26T01:19:33.511Z,0.70
2022-11-26T01:20:35.367Z,0.57
2022-11-26T01:21:37.379Z,0.53
2022-11-26T01:22:39.091Z,0.55
2022-11-26T01:23:40.883Z,0.51
2022-11-26T01:24:42.512Z,0.52
2022-11-26T01:25:45.846Z,0.52
2022-11-26T01:26:47.887Z,0.58
2022-11-26T01:27:49.902Z,0.61
2022-11-26T01:28:51.696Z,0.55
2022-11-26T01:29:53.311Z,0.55
2022-11-26T01:30:55.241Z,0.57
2022-11-26T01:31:57.263Z,0.53
2022-11-26T01:32:59.206Z,0.56
2022-11-26T01:34:02.048Z,0.62
2022-11-26T01:35:04.700Z,0.72
2022-11-26T01:36:28.471Z,0.75
2022-11-26T01:37:30.283Z,0.71
2022-11-26T01:38:32.019Z,0.57
2022-11-26T01:39:33.626Z,0.55
2022-11-26T01:40:54.330Z,0.51
2022-11-26T01:42:29.015Z,0.44
2022-11-26T01:43:39.978Z,0.45
2022-11-26T01:44:41.979Z,0.56
2022-11-26T01:45:43.965Z,0.45
2022-11-26T01:46:47.228Z,0.36
2022-11-26T01:47:49.592Z,0.37
2022-11-26T01:48:52.071Z,0.44
2022-11-26T01:50:29.936Z,0.44
2022-11-26T01:51:31.921Z,0.44
2022-11-26T01:52:34.939Z,0.45
2022-11-26T01:53:49.130Z,0.51
2022-11-26T01:54:52.683Z,0.49
2022-11-26T01:56:02.229Z,0.48
2022-11-26T01:57:14.388Z,0.48
2022-11-26T01:58:19.839Z,0.44
2022-11-26T01:59:25.411Z,0.44
2022-11-26T02:00:27.424Z,0.51
2022-11-26T02:01:29.577Z,0.57
2022-11-26T02:02:32.274Z,0.60
2022-11-26T02:03:46.549Z,0.57
2022-11-26T02:04:57.896Z,0.66
2022-11-26T02:07:14.284Z,0.94
2022-11-26T02:08:17.379Z,0.84
2022-11-26T02:09:19.704Z,0.81
2022-11-26T02:10:21.568Z,0.83
2022-11-26T02:11:24.669Z,0.78
2022-11-26T02:12:27.301Z,0.85
2022-11-26T02:13:29.163Z,0.85
2022-11-26T02:14:37.647Z,0.77
2022-11-26T02:16:05.813Z,0.81
2022-11-26T02:17:30.119Z,0.86
2022-11-26T02:18:35.744Z,0.92
2022-11-26T02:19:59.366Z,0.74
2022-11-26T02:21:17.274Z,0.76
2022-11-26T02:22:49.146Z,0.67
2022-11-26T02:23:57.263Z,0.73
2022-11-26T02:25:20.826Z,0.87
2022-11-26T02:26:44.080Z,0.86
2022-11-26T02:28:07.837Z,0.86
2022-11-26T02:29:22.902Z,0.85
2022-11-26T02:30:26.428Z,0.93
2022-11-26T02:31:47.368Z,0.93
2022-11-26T02:32:59.259Z,0.95
2022-11-26T02:34:19.555Z,1.06
2022-11-26T02:35:28.218Z,1.16
2022-11-26T02:36:36.777Z,1.18
2022-11-26T02:37:43.306Z,1.11
2022-11-26T02:38:45.365Z,1.10
2022-11-26T02:39:47.982Z,1.13
2022-11-26T02:40:52.020Z,1.14
2022-11-26T02:41:59.310Z,1.07
2022-11-26T02:43:02.341Z,0.98
2022-11-26T02:44:04.353Z,0.96
2022-11-26T02:45:10.189Z,0.95
2022-11-26T02:46:18.647Z,1.03
2022-11-26T02:47:23.934Z,1.08
2022-11-26T02:48:33.288Z,1.10
2022-11-26T02:49:38.765Z,1.06
2022-11-26T02:50:56.053Z,1.05
2022-11-26T02:52:00.692Z,1.02
2022-11-26T02:53:03.757Z,1.08
2022-11-26T02:54:08.721Z,1.09
2022-11-26T02:55:14.763Z,1.10
2022-11-26T02:56:20.466Z,1.05
2022-11-26T02:57:26.095Z,1.08
2022-11-26T02:58:28.692Z,1.15
2022-11-26T02:59:31.166Z,1.21
2022-11-26T03:00:35.439Z,1.24
2022-11-26T03:01:43.705Z,1.21
2022-11-26T03:02:55.599Z,1.16
2022-11-26T03:04:01.102Z,1.11
2022-11-26T03:05:05.922Z,1.11
2022-11-26T03:06:10.955Z,1.08
2022-11-26T03:07:14.140Z,1.05
2022-11-26T03:08:17.080Z,1.09
2022-11-26T03:09:21.463Z,1.10
2022-11-26T03:10:28.825Z,1.11
2022-11-26T03:11:30.781Z,1.10
2022-11-26T03:12:34.049Z,1.10
2022-11-26T03:13:36.244Z,1.10
2022-11-26T03:14:38.884Z,1.12
2022-11-26T03:15:40.973Z,1.11
2022-11-26T03:16:42.783Z,1.13
2022-11-26T03:17:44.708Z,1.15
2022-11-26T03:18:47.848Z,1.19
2022-11-26T03:19:50.628Z,1.17
2022-11-26T03:20:52.739Z,1.23
2022-11-26T03:21:54.662Z,1.26
2022-11-26T03:22:56.261Z,1.27
2022-11-26T03:23:57.976Z,1.31
2022-11-26T03:25:00.960Z,1.24
2022-11-26T03:26:03.276Z,1.22
2022-11-26T03:27:06.900Z,1.25
2022-11-26T03:28:08.737Z,1.23
2022-11-26T03:29:10.361Z,1.18
2022-11-26T03:30:13.071Z,1.04
2022-11-26T03:31:16.190Z,1.02
2022-11-26T03:32:18.845Z,1.04
2022-11-26T03:33:20.619Z,1.11
2022-11-26T03:34:22.424Z,1.08
2022-11-26T03:35:24.892Z,1.05
2022-11-26T03:36:26.842Z,1.02
2022-11-26T03:37:29.597Z,1.06
2022-11-26T03:38:31.708Z,1.05
2022-11-26T03:39:33.606Z,1.11
2022-11-26T03:40:35.680Z,1.11
2022-11-26T03:41:37.814Z,1.10
2022-11-26T03:42:39.780Z,1.08
2022-11-26T03:43:41.402Z,1.17
2022-11-26T03:44:44.184Z,1.20
2022-11-26T03:45:46.161Z,1.19
2022-11-26T03:46:48.090Z,1.21
2022-11-26T03:47:49.856Z,1.25
2022-11-26T03:48:51.779Z,1.33
2022-11-26T03:49:53.621Z,1.37
2022-11-26T03:50:55.314Z,1.23
2022-11-26T03:51:57.083Z,1.27
2022-11-26T03:52:58.714Z,1.36
2022-11-26T03:54:01.339Z,1.41
2022-11-26T03:55:03.284Z,1.38
2022-11-26T03:56:06.777Z,1.33
2022-11-26T03:57:08.516Z,1.33
2022-11-26T03:58:10.371Z,1.32
2022-11-26T03:59:12.228Z,1.31
2022-11-26T04:00:14.906Z,1.27
2022-11-26T04:01:16.985Z,1.24
2022-11-26T04:02:19.151Z,1.26
2022-11-26T04:03:20.969Z,1.28
2022-11-26T04:04:23.290Z,1.29
2022-11-26T04:05:25.093Z,1.28
2022-11-26T04:06:27.770Z,1.24
2022-11-26T04:07:29.645Z,1.25
2022-11-26T04:08:31.670Z,1.34
2022-11-26T04:09:33.749Z,1.29
2022-11-26T04:10:35.608Z,1.30
2022-11-26T04:11:37.444Z,1.33
2022-11-26T04:12:39.259Z,1.40
2022-11-26T04:13:41.307Z,1.45
2022-11-26T04:14:43.876Z,1.37
2022-11-26T04:15:47.454Z,1.37
2022-11-26T04:16:49.679Z,1.33
2022-11-26T04:17:51.631Z,1.37
2022-11-26T04:18:53.333Z,1.44
2022-11-26T04:19:55.247Z,1.50
2022-11-26T04:20:56.975Z,1.45
2022-11-26T04:21:58.833Z,1.47
2022-11-26T04:23:00.534Z,1.41
2022-11-26T04:24:03.382Z,1.42
2022-11-26T04:25:05.731Z,1.48
2022-11-26T04:26:08.292Z,1.49
2022-11-26T04:27:10.271Z,1.47
2022-11-26T04:28:11.912Z,1.51
2022-11-26T04:29:13.514Z,1.52
2022-11-26T04:30:18.490Z,1.48
2022-11-26T04:31:20.365Z,1.44
2022-11-26T04:32:22.306Z,1.35
2022-11-26T04:33:24.471Z,1.37
2022-11-26T04:34:26.112Z,1.34
2022-11-26T04:35:27.982Z,1.34
2022-11-26T04:36:29.795Z,1.34
2022-11-26T04:37:31.602Z,1.39
2022-11-26T04:38:33.347Z,1.39
2022-11-26T04:39:35.579Z,1.33
2022-11-26T04:40:38.735Z,1.36
2022-11-26T04:41:40.407Z,1.36
2022-11-26T04:42:42.242Z,1.43
2022-11-26T04:43:44.051Z,1.46
2022-11-26T04:44:45.786Z,1.51
2022-11-26T04:45:47.581Z,1.46
2022-11-26T04:46:49.616Z,1.32
2022-11-26T04:47:51.586Z,1.31
2022-11-26T04:48:53.325Z,1.34
2022-11-26T04:49:55.377Z,1.41
2022-11-26T04:50:57.482Z,1.39
2022-11-26T04:51:59.282Z,1.35
2022-11-26T04:53:01.019Z,1.30
2022-11-26T04:54:06.438Z,1.33
2022-11-26T04:55:08.021Z,1.36
2022-11-26T04:56:10.078Z,1.34
2022-11-26T04:57:11.912Z,1.31
2022-11-26T04:58:13.656Z,1.35
2022-11-26T04:59:15.961Z,1.38
2022-11-26T05:00:19.276Z,1.41
2022-11-26T05:01:21.169Z,1.43
2022-11-26T05:02:23.083Z,1.49
2022-11-26T05:03:25.068Z,1.60
2022-11-26T05:04:28.205Z,1.60
2022-11-26T05:05:30.035Z,1.61
2022-11-26T05:06:32.009Z,1.60
2022-11-26T05:07:34.112Z,1.47
2022-11-26T05:08:35.887Z,1.40
2022-11-26T05:09:37.726Z,1.42
2022-11-26T05:10:39.774Z,1.42
2022-11-26T11:05:55.842Z,1.14
2022-11-26T11:06:58.430Z,1.01
2022-11-26T11:08:00.292Z,1.00
2022-11-26T11:09:24.686Z,1.03
2022-11-26T11:10:26.756Z,1.03
2022-11-26T11:11:30.481Z,1.04
2022-11-26T11:12:33.100Z,1.04
2022-11-26T11:13:43.214Z,1.11
2022-11-26T11:14:46.199Z,1.15
2022-11-26T11:15:52.360Z,1.26
2022-11-26T11:16:54.485Z,1.20
2022-11-26T11:18:15.028Z,1.13
2022-11-26T11:19:23.476Z,1.13
2022-11-26T11:20:44.717Z,1.18
2022-11-26T11:21:48.547Z,1.21
2022-11-26T11:23:03.173Z,1.22
2022-11-26T11:24:24.092Z,1.17
2022-11-26T11:25:34.702Z,1.20
2022-11-26T11:26:44.861Z,1.26
2022-11-26T11:27:47.929Z,1.35
2022-11-26T11:28:54.820Z,1.31
2022-11-26T11:30:01.805Z,1.24
2022-11-26T11:31:10.271Z,1.23
2022-11-26T11:32:33.872Z,1.23
2022-11-26T11:33:36.134Z,1.20
2022-11-26T11:34:39.981Z,1.20
2022-11-26T11:35:42.044Z,1.18
2022-11-26T11:36:47.515Z,1.20
2022-11-26T11:37:53.627Z,1.20
2022-11-26T11:38:58.925Z,1.20
2022-11-26T11:40:09.209Z,1.10
2022-11-26T11:41:24.932Z,1.04
2022-11-26T11:42:27.693Z,1.03
2022-11-26T11:43:33.188Z,1.21
2022-11-26T11:44:44.555Z,1.21
2022-11-26T11:45:53.550Z,1.18
2022-11-26T11:47:11.480Z,1.19
2022-11-26T11:48:21.075Z,1.24
2022-11-26T11:49:30.632Z,1.32
2022-11-26T11:50:39.180Z,1.36
2022-11-26T11:52:03.798Z,1.33
2022-11-26T11:53:30.583Z,1.33
2022-11-26T11:54:53.008Z,1.35
2022-11-26T11:56:02.411Z,1.31
2022-11-26T11:57:18.002Z,1.32
2022-11-26T11:58:40.211Z,1.22
2022-11-26T11:59:45.789Z,1.16
2022-11-26T12:01:12.804Z,1.21
2022-11-26T12:02:25.345Z,1.22
2022-11-26T12:03:52.671Z,1.30
2022-11-26T12:05:08.227Z,1.39
2022-11-26T12:06:30.502Z,1.42
2022-11-26T12:07:42.222Z,1.48
2022-11-26T12:08:57.147Z,1.31
2022-11-26T12:10:17.784Z,1.29
2022-11-26T12:11:26.302Z,1.26
2022-11-26T12:12:34.901Z,1.34
2022-11-26T12:13:46.830Z,1.14
2022-11-26T12:14:55.178Z,1.09
2022-11-26T12:16:07.264Z,1.21
2022-11-26T12:19:02.745Z,1.22
2022-11-26T12:20:08.854Z,1.14
2022-11-26T12:21:16.085Z,1.39
2022-11-26T12:22:21.584Z,1.17
2022-11-26T12:23:31.248Z,1.08
2022-11-26T12:24:45.685Z,1.04
2022-11-26T12:25:51.890Z,1.06
2022-11-26T12:28:19.329Z,1.01
2022-11-26T12:29:40.161Z,0.91
2022-11-26T12:30:52.046Z,0.90
2022-11-26T12:32:12.950Z,0.88
2022-11-26T12:33:21.568Z,0.92
2022-11-26T12:34:33.843Z,0.99
2022-11-26T12:35:39.356Z,0.97
2022-11-26T12:36:57.014Z,1.06
2022-11-26T12:38:02.528Z,1.13
2022-11-26T12:39:08.089Z,1.10
2022-11-26T12:40:29.842Z,1.18
2022-11-26T12:41:35.874Z,1.23
2022-11-26T12:42:44.869Z,1.32
2022-11-26T12:44:08.575Z,1.39
2022-11-26T12:45:19.958Z,1.33
2022-11-26T12:46:25.663Z,1.27
2022-11-26T12:47:40.496Z,1.18
2022-11-26T12:48:48.846Z,1.09
2022-11-26T12:50:00.361Z,0.91
2022-11-26T12:51:23.313Z,0.83
2022-11-26T12:52:53.637Z,0.87
2022-11-26T12:54:02.040Z,0.86
2022-11-26T12:55:33.311Z,0.89
2022-11-26T12:56:44.990Z,0.91
2022-11-26T12:57:56.660Z,0.92
2022-11-26T12:59:05.352Z,0.85
2022-11-26T13:00:11.387Z,0.81
2022-11-26T13:01:13.724Z,0.71
2022-11-26T13:02:31.622Z,0.67
2022-11-26T13:03:33.783Z,0.78
2022-11-26T13:04:37.904Z,0.78
2022-11-26T13:05:52.672Z,0.86
2022-11-26T13:07:22.930Z,0.73
2022-11-26T13:08:51.448Z,0.70
2022-11-26T13:10:00.222Z,0.80
2022-11-26T13:11:22.549Z,0.90
2022-11-26T13:12:37.321Z,0.81
2022-11-26T13:13:48.790Z,0.73
2022-11-26T13:15:11.432Z,0.70
2022-11-26T13:16:23.374Z,0.67
2022-11-26T13:17:37.577Z,0.67
2022-11-26T13:18:43.477Z,0.74
2022-11-26T13:20:18.361Z,0.59
2022-11-26T13:21:23.935Z,0.53
2022-11-26T13:22:35.452Z,0.57
2022-11-26T13:24:02.521Z,0.63
2022-11-26T13:25:08.100Z,0.82
2022-11-26T13:26:16.629Z,0.97
2022-11-26T13:27:22.129Z,0.96
2022-11-26T13:28:47.596Z,1.07
2022-11-26T13:30:23.428Z,1.00
2022-11-26T13:31:35.156Z,0.81
2022-11-26T13:32:57.354Z,0.74
2022-11-26T13:34:12.206Z,0.79
2022-11-26T13:35:40.184Z,0.63
2022-11-26T13:37:04.072Z,0.71
2022-11-26T13:38:28.115Z,0.75
2022-11-26T13:39:51.911Z,0.77
2022-11-26T13:41:03.734Z,0.76
2022-11-26T13:43:49.996Z,0.83
2022-11-26T13:44:58.237Z,0.62
2022-11-26T13:46:21.555Z,0.65
2022-11-26T13:47:33.113Z,0.65
2022-11-26T13:48:42.784Z,0.69
2022-11-26T13:49:48.269Z,0.71
2022-11-26T13:50:59.997Z,0.72
2022-11-26T13:52:12.310Z,0.76
2022-11-26T13:53:26.471Z,0.67
2022-11-26T13:54:44.973Z,0.71
2022-11-26T13:56:02.726Z,0.75
2022-11-26T13:57:14.644Z,0.78
2022-11-26T13:58:23.906Z,0.76
2022-11-26T13:59:28.773Z,0.77
2022-11-26T14:00:35.164Z,0.79
2022-11-26T14:01:39.602Z,0.90
2022-11-26T14:02:42.945Z,0.89
2022-11-26T14:03:48.311Z,0.79
2022-11-26T14:04:52.535Z,1.50
2022-11-26T14:06:07.681Z,1.13
2022-11-26T14:07:09.992Z,1.13
2022-11-26T14:08:35.425Z,0.93
2022-11-26T14:09:46.857Z,0.92
2022-11-26T14:10:49.081Z,1.05
2022-11-26T14:11:52.605Z,0.97
2022-11-26T14:13:07.164Z,1.01
2022-11-26T14:14:27.793Z,1.01
2022-11-26T14:15:46.785Z,0.99
2022-11-26T14:17:05.285Z,1.09
2022-11-26T14:18:15.956Z,1.07
2022-11-26T14:19:18.061Z,0.98
2022-11-26T14:20:20.379Z,0.96
2022-11-26T14:21:23.162Z,0.92
2022-11-26T14:22:45.326Z,0.92
2022-11-26T14:23:56.580Z,0.89
2022-11-26T14:26:24.576Z,0.91
2022-11-26T14:27:33.024Z,0.86
2022-11-26T14:28:34.850Z,0.77
2022-11-26T14:29:37.524Z,0.72
2022-11-26T14:30:39.430Z,0.76
2022-11-26T14:31:44.859Z,0.76
2022-11-26T14:33:09.103Z,0.73
2022-11-26T14:34:20.814Z,0.82
2022-11-26T14:35:36.498Z,0.72
2022-11-26T14:37:55.353Z,1.00
2022-11-26T14:39:06.426Z,0.76
2022-11-26T14:40:24.447Z,0.70
2022-11-26T14:41:27.375Z,0.81
2022-11-26T14:42:29.623Z,0.78
2022-11-26T14:43:31.686Z,0.68
2022-11-26T14:44:34.688Z,0.77
2022-11-26T14:45:37.276Z,0.94
2022-11-26T14:46:41.252Z,0.99
2022-11-26T14:47:48.499Z,0.85
2022-11-26T14:48:52.058Z,0.87
2022-11-26T14:50:07.939Z,0.87
2022-11-26T14:51:10.579Z,0.84
2022-11-26T14:52:39.647Z,1.02
2022-11-26T14:53:45.222Z,1.07
2022-11-26T19:54:39.944Z,0.33
2022-11-26T19:55:42.503Z,0.22
2022-11-26T19:56:44.930Z,0.19
2022-11-26T19:57:46.887Z,0.22
2022-11-26T19:58:50.067Z,0.26
2022-11-26T19:59:52.678Z,0.34
2022-11-26T20:00:55.003Z,0.39
2022-11-26T20:01:57.161Z,0.48
2022-11-26T20:02:59.602Z,0.54
2022-11-26T20:04:05.524Z,0.61
2022-11-26T20:05:10.779Z,0.60
2022-11-26T20:06:19.788Z,0.45
2022-11-26T20:07:22.399Z,0.43
2022-11-26T20:08:24.561Z,0.48
2022-11-26T20:09:27.777Z,0.42
2022-11-26T20:10:29.731Z,0.30
2022-11-26T20:11:33.845Z,0.31
2022-11-26T20:12:36.982Z,0.51
2022-11-26T20:13:41.481Z,0.43
2022-11-26T20:14:43.458Z,0.44
2022-11-26T20:15:45.337Z,0.48
2022-11-26T20:16:47.345Z,0.43
2022-11-26T20:17:49.354Z,0.45
2022-11-26T20:18:51.523Z,0.49
2022-11-26T20:19:55.644Z,0.59
2022-11-26T20:21:00.661Z,0.51
2022-11-26T20:22:03.096Z,0.57
2022-11-26T20:23:05.793Z,0.55
2022-11-26T20:24:14.541Z,0.48
2022-11-26T20:25:17.071Z,0.38
2022-11-26T20:26:22.661Z,0.40
2022-11-26T20:27:24.661Z,0.44
2022-11-26T20:28:26.732Z,0.43
2022-11-26T20:29:28.773Z,0.43
2022-11-26T20:30:32.061Z,0.45
2022-11-26T20:31:36.229Z,0.43
2022-11-26T20:32:40.148Z,0.40
2022-11-26T20:33:42.058Z,0.43
2022-11-26T20:34:44.822Z,0.40
2022-11-26T20:35:47.789Z,0.46
2022-11-26T20:36:51.029Z,0.50
2022-11-26T20:37:52.913Z,0.42
2022-11-26T20:38:56.593Z,0.43
2022-11-26T20:39:58.514Z,0.44
2022-11-26T20:41:00.458Z,0.48
2022-11-26T20:42:02.644Z,0.45
2022-11-26T20:43:04.462Z,0.36
2022-11-26T20:44:06.291Z,0.46
2022-11-26T20:45:09.884Z,0.46
2022-11-26T20:46:14.633Z,0.56
2022-11-26T20:47:16.593Z,0.57
2022-11-26T20:48:18.400Z,0.56
2022-11-26T20:49:21.032Z,0.42
2022-11-26T20:50:24.037Z,0.36
2022-11-26T20:51:26.909Z,0.41
2022-11-26T20:52:29.015Z,0.46
2022-11-26T20:53:32.591Z,0.38
2022-11-26T20:54:34.674Z,0.39
2022-11-26T20:55:36.836Z,0.40
2022-11-26T20:56:38.755Z,0.40
2022-11-26T20:57:41.599Z,0.47
2022-11-26T20:58:43.721Z,0.44
2022-11-26T20:59:46.432Z,0.42
2022-11-26T21:00:48.413Z,0.46
2022-11-26T21:01:53.419Z,0.42
2022-11-26T21:02:55.868Z,0.44
2022-11-26T21:03:58.485Z,0.51
2022-11-26T21:05:00.797Z,0.40
2022-11-26T21:06:04.278Z,0.47
2022-11-26T21:07:06.255Z,0.42
2022-11-26T21:08:09.010Z,0.23
2022-11-26T21:09:12.653Z,0.17
2022-11-26T21:10:14.721Z,0.19
2022-11-26T21:11:18.194Z,0.20
2022-11-26T21:12:20.153Z,0.24
2022-11-26T21:13:22.393Z,0.24
2022-11-26T21:14:24.344Z,0.31
2022-11-26T21:15:27.396Z,0.34
2022-11-26T21:16:30.396Z,0.23
2022-11-26T21:17:32.493Z,0.22
2022-11-26T21:18:35.485Z,0.23
2022-11-26T21:19:38.168Z,0.28
2022-11-26T21:20:42.327Z,0.26
2022-11-26T21:21:44.309Z,0.12
2022-11-26T21:22:47.295Z,0.11
2022-11-26T21:23:51.113Z,0.17
2022-11-26T21:24:53.084Z,0.26
2022-11-26T21:25:54.728Z,0.31
2022-11-26T21:26:56.940Z,0.29
2022-11-26T21:27:59.737Z,0.30
2022-11-26T21:29:01.866Z,0.29
2022-11-26T21:30:05.014Z,0.31
2022-11-26T21:31:09.751Z,0.25
2022-11-26T21:32:11.678Z,0.22
2022-11-26T21:33:14.188Z,0.24
2022-11-26T21:34:16.463Z,0.21
2022-11-26T21:35:18.745Z,0.28
2022-11-26T21:36:22.730Z,0.31
2022-11-26T21:37:26.783Z,0.35
2022-11-26T21:38:29.143Z,0.40
2022-11-26T21:39:31.084Z,0.35
2022-11-26T21:40:33.361Z,0.37
2022-11-26T21:41:35.650Z,0.47
2022-11-26T21:42:37.973Z,0.35
2022-11-26T21:43:40.986Z,0.35
2022-11-26T21:44:43.386Z,0.37
2022-11-26T21:45:45.736Z,0.42
2022-11-26T21:46:48.307Z,0.40
2022-11-26T21:47:51.697Z,0.50
2022-11-26T21:48:55.353Z,0.46
2022-11-26T21:49:57.621Z,0.33
2022-11-26T21:51:01.782Z,0.40
2022-11-26T21:52:03.923Z,0.42
2022-11-26T21:53:06.306Z,0.39
2022-11-26T21:54:08.580Z,0.40
2022-11-26T21:55:11.023Z,0.33
2022-11-26T21:56:17.227Z,0.29
2022-11-26T21:57:19.248Z,0.37
2022-11-26T21:58:20.991Z,0.29
2022-11-26T21:59:22.920Z,0.29
2022-11-26T22:00:24.683Z,0.38
2022-11-26T22:01:32.921Z,0.38
2022-11-26T22:02:36.221Z,0.34
2022-11-26T22:03:40.406Z,0.29
2022-11-26T22:04:42.988Z,0.33
2022-11-26T22:05:44.823Z,0.38
2022-11-26T22:06:48.283Z,0.45
2022-11-26T22:07:50.244Z,0.40
2022-11-26T22:08:52.780Z,0.34
2022-11-26T22:09:55.161Z,0.34
2022-11-26T22:10:57.293Z,0.34
2022-11-26T22:11:59.024Z,0.33
2022-11-26T22:13:00.776Z,0.24
2022-11-26T22:14:04.755Z,0.27
2022-11-26T22:15:08.390Z,0.36
2022-11-26T22:16:12.958Z,0.26
2022-11-26T22:17:14.962Z,0.20
